sensor_id;sensor_type;location;lat;lon;timestamp;P1;durP1;ratioP1;P2;durP2;ratioP2
4122;SDS011;2075;51.062;6.920;2023-02-02T00:00:53;22.73;;;6.10;;
4122;SDS011;2075;51.062;6.920;2023-02-02T00:03:39;24.50;;;5.80;;
4122;SDS011;2075;51.062;6.920;2023-02-02T00:06:26;11.17;;;4.60;;
4122;SDS011;2075;51.062;6.920;2023-02-02T00:09:14;20.03;;;6.30;;
4122;SDS011;2075;51.062;6.920;2023-02-02T00:12:01;22.17;;;6.00;;
4122;SDS011;2075;51.062;6.920;2023-02-02T00:14:48;16.70;;;5.50;;
4122;SDS011;2075;51.062;6.920;2023-02-02T00:17:33;19.20;;;6.20;;
4122;SDS011;2075;51.062;6.920;2023-02-02T00:20:19;22.20;;;5.67;;
4122;SDS011;2075;51.062;6.920;2023-02-02T00:23:07;19.60;;;5.70;;
4122;SDS011;2075;51.062;6.920;2023-02-02T00:25:52;19.77;;;4.93;;
4122;SDS011;2075;51.062;6.920;2023-02-02T00:28:37;24.57;;;5.63;;
4122;SDS011;2075;51.062;6.920;2023-02-02T00:31:24;18.40;;;5.30;;
4122;SDS011;2075;51.062;6.920;2023-02-02T00:34:10;16.93;;;5.10;;
4122;SDS011;2075;51.062;6.920;2023-02-02T00:36:56;20.33;;;6.07;;
4122;SDS011;2075;51.062;6.920;2023-02-02T00:39:41;24.97;;;5.70;;
4122;SDS011;2075;51.062;6.920;2023-02-02T00:42:27;14.13;;;4.70;;
4122;SDS011;2075;51.062;6.920;2023-02-02T00:45:12;21.10;;;5.20;;
4122;SDS011;2075;51.062;6.920;2023-02-02T00:48:02;18.77;;;4.50;;
4122;SDS011;2075;51.062;6.920;2023-02-02T00:50:48;21.73;;;5.87;;
4122;SDS011;2075;51.062;6.920;2023-02-02T00:53:33;13.63;;;3.90;;
4122;SDS011;2075;51.062;6.920;2023-02-02T00:56:19;19.03;;;4.80;;
4122;SDS011;2075;51.062;6.920;2023-02-02T00:59:04;10.03;;;4.20;;
4122;SDS011;2075;51.062;6.920;2023-02-02T01:01:50;14.73;;;4.80;;
4122;SDS011;2075;51.062;6.920;2023-02-02T01:04:37;17.73;;;5.13;;
4122;SDS011;2075;51.062;6.920;2023-02-02T01:07:22;24.57;;;4.97;;
4122;SDS011;2075;51.062;6.920;2023-02-02T01:10:15;16.53;;;4.63;;
4122;SDS011;2075;51.062;6.920;2023-02-02T01:13:02;17.47;;;4.30;;
4122;SDS011;2075;51.062;6.920;2023-02-02T01:15:48;16.73;;;4.77;;
4122;SDS011;2075;51.062;6.920;2023-02-02T01:18:38;15.53;;;4.60;;
4122;SDS011;2075;51.062;6.920;2023-02-02T01:21:25;21.70;;;4.70;;
4122;SDS011;2075;51.062;6.920;2023-02-02T01:24:10;12.90;;;4.40;;
4122;SDS011;2075;51.062;6.920;2023-02-02T01:26:56;11.90;;;4.80;;
4122;SDS011;2075;51.062;6.920;2023-02-02T01:29:41;20.70;;;4.60;;
4122;SDS011;2075;51.062;6.920;2023-02-02T01:32:27;17.57;;;5.00;;
4122;SDS011;2075;51.062;6.920;2023-02-02T01:35:12;21.03;;;5.90;;
4122;SDS011;2075;51.062;6.920;2023-02-02T01:37:59;21.53;;;6.13;;
4122;SDS011;2075;51.062;6.920;2023-02-02T01:40:45;25.17;;;5.93;;
4122;SDS011;2075;51.062;6.920;2023-02-02T01:46:37;13.43;;;5.30;;
4122;SDS011;2075;51.062;6.920;2023-02-02T01:49:24;23.50;;;5.80;;
4122;SDS011;2075;51.062;6.920;2023-02-02T01:52:10;22.80;;;5.90;;
4122;SDS011;2075;51.062;6.920;2023-02-02T01:54:59;25.13;;;5.50;;
4122;SDS011;2075;51.062;6.920;2023-02-02T01:57:52;16.07;;;6.20;;
4122;SDS011;2075;51.062;6.920;2023-02-02T02:00:43;15.67;;;5.13;;
4122;SDS011;2075;51.062;6.920;2023-02-02T02:03:29;18.63;;;6.23;;
4122;SDS011;2075;51.062;6.920;2023-02-02T02:06:17;14.83;;;5.03;;
4122;SDS011;2075;51.062;6.920;2023-02-02T02:09:04;18.40;;;6.53;;
4122;SDS011;2075;51.062;6.920;2023-02-02T02:11:52;24.90;;;6.23;;
4122;SDS011;2075;51.062;6.920;2023-02-02T02:14:39;23.30;;;4.87;;
4122;SDS011;2075;51.062;6.920;2023-02-02T02:17:47;22.33;;;5.37;;
4122;SDS011;2075;51.062;6.920;2023-02-02T02:20:52;26.60;;;5.00;;
4122;SDS011;2075;51.062;6.920;2023-02-02T02:31:42;25.13;;;4.63;;
4122;SDS011;2075;51.062;6.920;2023-02-02T02:34:57;17.67;;;4.90;;
4122;SDS011;2075;51.062;6.920;2023-02-02T02:37:48;15.90;;;4.20;;
4122;SDS011;2075;51.062;6.920;2023-02-02T02:40:39;13.97;;;4.63;;
4122;SDS011;2075;51.062;6.920;2023-02-02T02:43:28;13.33;;;4.30;;
4122;SDS011;2075;51.062;6.920;2023-02-02T02:46:17;23.30;;;4.83;;
4122;SDS011;2075;51.062;6.920;2023-02-02T02:49:07;19.77;;;4.67;;
4122;SDS011;2075;51.062;6.920;2023-02-02T02:51:55;21.63;;;5.40;;
4122;SDS011;2075;51.062;6.920;2023-02-02T02:54:46;14.77;;;4.47;;
4122;SDS011;2075;51.062;6.920;2023-02-02T02:57:41;15.73;;;4.53;;
4122;SDS011;2075;51.062;6.920;2023-02-02T03:00:48;15.67;;;4.77;;
4122;SDS011;2075;51.062;6.920;2023-02-02T03:03:50;20.57;;;4.60;;
4122;SDS011;2075;51.062;6.920;2023-02-02T03:06:49;14.03;;;4.20;;
4122;SDS011;2075;51.062;6.920;2023-02-02T03:09:39;16.03;;;5.03;;
4122;SDS011;2075;51.062;6.920;2023-02-02T03:12:27;19.73;;;5.27;;
4122;SDS011;2075;51.062;6.920;2023-02-02T03:15:13;29.70;;;4.83;;
4122;SDS011;2075;51.062;6.920;2023-02-02T03:17:59;14.90;;;4.83;;
4122;SDS011;2075;51.062;6.920;2023-02-02T03:20:45;17.70;;;5.67;;
4122;SDS011;2075;51.062;6.920;2023-02-02T03:23:32;16.03;;;5.63;;
4122;SDS011;2075;51.062;6.920;2023-02-02T03:26:17;11.13;;;4.90;;
4122;SDS011;2075;51.062;6.920;2023-02-02T03:29:03;14.13;;;4.93;;
4122;SDS011;2075;51.062;6.920;2023-02-02T03:31:48;18.17;;;6.10;;
4122;SDS011;2075;51.062;6.920;2023-02-02T03:34:34;31.57;;;5.80;;
4122;SDS011;2075;51.062;6.920;2023-02-02T03:37:19;23.80;;;4.80;;
4122;SDS011;2075;51.062;6.920;2023-02-02T03:40:07;19.53;;;5.70;;
4122;SDS011;2075;51.062;6.920;2023-02-02T03:42:53;28.50;;;5.77;;
4122;SDS011;2075;51.062;6.920;2023-02-02T03:45:39;19.83;;;5.83;;
4122;SDS011;2075;51.062;6.920;2023-02-02T03:48:25;22.43;;;5.30;;
4122;SDS011;2075;51.062;6.920;2023-02-02T03:51:12;25.50;;;5.77;;
4122;SDS011;2075;51.062;6.920;2023-02-02T03:53:58;17.20;;;5.20;;
4122;SDS011;2075;51.062;6.920;2023-02-02T03:56:45;22.43;;;4.50;;
4122;SDS011;2075;51.062;6.920;2023-02-02T03:59:31;17.93;;;5.47;;
4122;SDS011;2075;51.062;6.920;2023-02-02T04:02:16;18.83;;;4.73;;
4122;SDS011;2075;51.062;6.920;2023-02-02T04:05:02;24.67;;;5.33;;
4122;SDS011;2075;51.062;6.920;2023-02-02T04:07:48;21.67;;;5.40;;
4122;SDS011;2075;51.062;6.920;2023-02-02T04:10:34;19.13;;;5.60;;
4122;SDS011;2075;51.062;6.920;2023-02-02T04:13:21;18.47;;;4.47;;
4122;SDS011;2075;51.062;6.920;2023-02-02T04:16:06;15.03;;;4.30;;
4122;SDS011;2075;51.062;6.920;2023-02-02T04:18:52;15.93;;;5.27;;
4122;SDS011;2075;51.062;6.920;2023-02-02T04:21:37;25.87;;;6.67;;
4122;SDS011;2075;51.062;6.920;2023-02-02T04:24:23;17.33;;;4.77;;
4122;SDS011;2075;51.062;6.920;2023-02-02T04:27:08;13.80;;;4.90;;
4122;SDS011;2075;51.062;6.920;2023-02-02T04:29:55;17.60;;;5.50;;
4122;SDS011;2075;51.062;6.920;2023-02-02T04:32:41;20.80;;;4.70;;
4122;SDS011;2075;51.062;6.920;2023-02-02T04:35:26;17.53;;;4.20;;
4122;SDS011;2075;51.062;6.920;2023-02-02T04:38:12;20.23;;;5.50;;
4122;SDS011;2075;51.062;6.920;2023-02-02T04:40:58;11.27;;;5.17;;
4122;SDS011;2075;51.062;6.920;2023-02-02T04:43:49;23.13;;;5.33;;
4122;SDS011;2075;51.062;6.920;2023-02-02T04:46:36;22.10;;;5.53;;
4122;SDS011;2075;51.062;6.920;2023-02-02T04:49:22;20.50;;;5.00;;
4122;SDS011;2075;51.062;6.920;2023-02-02T04:52:09;19.10;;;4.70;;
4122;SDS011;2075;51.062;6.920;2023-02-02T04:54:55;13.53;;;4.33;;
4122;SDS011;2075;51.062;6.920;2023-02-02T04:57:40;24.27;;;6.33;;
4122;SDS011;2075;51.062;6.920;2023-02-02T05:00:26;25.80;;;6.40;;
4122;SDS011;2075;51.062;6.920;2023-02-02T05:03:13;24.33;;;5.30;;
4122;SDS011;2075;51.062;6.920;2023-02-02T05:06:02;16.03;;;4.80;;
4122;SDS011;2075;51.062;6.920;2023-02-02T05:08:49;19.93;;;4.67;;
4122;SDS011;2075;51.062;6.920;2023-02-02T05:11:35;26.73;;;5.60;;
4122;SDS011;2075;51.062;6.920;2023-02-02T05:14:22;16.93;;;6.27;;
4122;SDS011;2075;51.062;6.920;2023-02-02T05:17:08;25.23;;;5.53;;
4122;SDS011;2075;51.062;6.920;2023-02-02T05:19:55;19.43;;;5.43;;
4122;SDS011;2075;51.062;6.920;2023-02-02T05:22:41;25.13;;;5.20;;
4122;SDS011;2075;51.062;6.920;2023-02-02T05:25:26;13.57;;;4.80;;
4122;SDS011;2075;51.062;6.920;2023-02-02T05:28:12;22.47;;;5.33;;
4122;SDS011;2075;51.062;6.920;2023-02-02T05:30:58;18.60;;;5.70;;
4122;SDS011;2075;51.062;6.920;2023-02-02T05:33:43;17.33;;;5.57;;
4122;SDS011;2075;51.062;6.920;2023-02-02T05:36:31;21.23;;;5.70;;
4122;SDS011;2075;51.062;6.920;2023-02-02T05:39:16;23.10;;;5.67;;
4122;SDS011;2075;51.062;6.920;2023-02-02T05:42:02;17.53;;;6.00;;
4122;SDS011;2075;51.062;6.920;2023-02-02T05:44:47;16.53;;;5.27;;
4122;SDS011;2075;51.062;6.920;2023-02-02T05:47:33;18.93;;;5.90;;
4122;SDS011;2075;51.062;6.920;2023-02-02T05:50:19;23.20;;;6.07;;
4122;SDS011;2075;51.062;6.920;2023-02-02T05:53:06;20.37;;;5.97;;
4122;SDS011;2075;51.062;6.920;2023-02-02T05:55:52;18.43;;;6.40;;
4122;SDS011;2075;51.062;6.920;2023-02-02T05:58:37;26.83;;;6.60;;
4122;SDS011;2075;51.062;6.920;2023-02-02T06:01:23;24.17;;;6.27;;
4122;SDS011;2075;51.062;6.920;2023-02-02T06:04:09;25.37;;;6.93;;
4122;SDS011;2075;51.062;6.920;2023-02-02T06:06:54;28.33;;;6.63;;
4122;SDS011;2075;51.062;6.920;2023-02-02T06:09:41;33.03;;;7.70;;
4122;SDS011;2075;51.062;6.920;2023-02-02T06:12:27;26.30;;;6.43;;
4122;SDS011;2075;51.062;6.920;2023-02-02T06:15:12;15.80;;;5.57;;
4122;SDS011;2075;51.062;6.920;2023-02-02T06:17:58;18.00;;;7.40;;
4122;SDS011;2075;51.062;6.920;2023-02-02T06:20:44;20.53;;;6.50;;
4122;SDS011;2075;51.062;6.920;2023-02-02T06:23:32;13.63;;;7.67;;
4122;SDS011;2075;51.062;6.920;2023-02-02T06:26:19;26.10;;;6.60;;
4122;SDS011;2075;51.062;6.920;2023-02-02T06:29:05;16.30;;;6.57;;
4122;SDS011;2075;51.062;6.920;2023-02-02T06:31:50;15.83;;;6.50;;
4122;SDS011;2075;51.062;6.920;2023-02-02T06:34:36;16.80;;;6.97;;
4122;SDS011;2075;51.062;6.920;2023-02-02T06:37:21;18.20;;;6.53;;
4122;SDS011;2075;51.062;6.920;2023-02-02T06:40:08;22.50;;;6.73;;
4122;SDS011;2075;51.062;6.920;2023-02-02T06:42:56;32.07;;;8.53;;
4122;SDS011;2075;51.062;6.920;2023-02-02T06:45:42;16.23;;;6.50;;
4122;SDS011;2075;51.062;6.920;2023-02-02T06:48:27;22.90;;;7.27;;
4122;SDS011;2075;51.062;6.920;2023-02-02T06:51:13;30.30;;;6.70;;
4122;SDS011;2075;51.062;6.920;2023-02-02T06:53:58;15.10;;;7.10;;
4122;SDS011;2075;51.062;6.920;2023-02-02T06:56:44;13.30;;;6.30;;
4122;SDS011;2075;51.062;6.920;2023-02-02T06:59:30;15.83;;;6.50;;
4122;SDS011;2075;51.062;6.920;2023-02-02T07:02:16;23.23;;;7.73;;
4122;SDS011;2075;51.062;6.920;2023-02-02T07:05:02;20.50;;;6.37;;
4122;SDS011;2075;51.062;6.920;2023-02-02T07:07:48;19.40;;;6.20;;
4122;SDS011;2075;51.062;6.920;2023-02-02T07:10:35;19.00;;;6.63;;
4122;SDS011;2075;51.062;6.920;2023-02-02T07:13:22;21.10;;;6.50;;
4122;SDS011;2075;51.062;6.920;2023-02-02T07:16:08;22.23;;;7.00;;
4122;SDS011;2075;51.062;6.920;2023-02-02T07:18:55;21.33;;;7.10;;
4122;SDS011;2075;51.062;6.920;2023-02-02T07:21:41;21.90;;;7.03;;
4122;SDS011;2075;51.062;6.920;2023-02-02T07:24:26;18.60;;;7.10;;
4122;SDS011;2075;51.062;6.920;2023-02-02T07:27:12;14.60;;;6.70;;
4122;SDS011;2075;51.062;6.920;2023-02-02T07:29:58;19.83;;;7.20;;
4122;SDS011;2075;51.062;6.920;2023-02-02T07:32:46;16.57;;;6.20;;
4122;SDS011;2075;51.062;6.920;2023-02-02T07:35:32;22.70;;;6.67;;
4122;SDS011;2075;51.062;6.920;2023-02-02T07:38:18;22.03;;;7.40;;
4122;SDS011;2075;51.062;6.920;2023-02-02T07:49:13;27.43;;;7.00;;
4122;SDS011;2075;51.062;6.920;2023-02-02T07:51:59;18.53;;;7.73;;
4122;SDS011;2075;51.062;6.920;2023-02-02T07:54:44;19.90;;;6.53;;
4122;SDS011;2075;51.062;6.920;2023-02-02T07:57:30;18.37;;;7.30;;
4122;SDS011;2075;51.062;6.920;2023-02-02T08:00:16;19.00;;;7.47;;
4122;SDS011;2075;51.062;6.920;2023-02-02T08:03:02;30.83;;;9.03;;
4122;SDS011;2075;51.062;6.920;2023-02-02T08:05:49;14.97;;;6.77;;
4122;SDS011;2075;51.062;6.920;2023-02-02T08:08:34;20.67;;;8.00;;
4122;SDS011;2075;51.062;6.920;2023-02-02T08:11:20;22.33;;;7.40;;
4122;SDS011;2075;51.062;6.920;2023-02-02T08:14:10;15.33;;;6.20;;
4122;SDS011;2075;51.062;6.920;2023-02-02T08:16:56;17.07;;;7.10;;
4122;SDS011;2075;51.062;6.920;2023-02-02T08:19:42;25.98;;;8.52;;
4122;SDS011;2075;51.062;6.920;2023-02-02T08:22:31;20.75;;;8.73;;
4122;SDS011;2075;51.062;6.920;2023-02-02T08:25:16;24.23;;;8.63;;
4122;SDS011;2075;51.062;6.920;2023-02-02T08:28:01;24.60;;;8.30;;
4122;SDS011;2075;51.062;6.920;2023-02-02T08:30:48;18.77;;;7.93;;
4122;SDS011;2075;51.062;6.920;2023-02-02T08:33:33;22.47;;;7.43;;
4122;SDS011;2075;51.062;6.920;2023-02-02T08:36:20;20.20;;;7.43;;
4122;SDS011;2075;51.062;6.920;2023-02-02T08:39:09;21.37;;;7.47;;
4122;SDS011;2075;51.062;6.920;2023-02-02T08:41:56;27.90;;;7.50;;
4122;SDS011;2075;51.062;6.920;2023-02-02T08:44:42;12.23;;;5.97;;
4122;SDS011;2075;51.062;6.920;2023-02-02T08:47:28;15.80;;;6.50;;
4122;SDS011;2075;51.062;6.920;2023-02-02T08:50:14;17.27;;;6.50;;
4122;SDS011;2075;51.062;6.920;2023-02-02T08:53:01;22.03;;;7.53;;
4122;SDS011;2075;51.062;6.920;2023-02-02T08:55:48;18.47;;;6.30;;
4122;SDS011;2075;51.062;6.920;2023-02-02T08:58:43;15.50;;;7.30;;
4122;SDS011;2075;51.062;6.920;2023-02-02T09:01:29;18.27;;;7.23;;
4122;SDS011;2075;51.062;6.920;2023-02-02T09:04:16;18.80;;;6.37;;
4122;SDS011;2075;51.062;6.920;2023-02-02T09:07:01;27.93;;;7.23;;
4122;SDS011;2075;51.062;6.920;2023-02-02T09:09:47;21.53;;;7.33;;
4122;SDS011;2075;51.062;6.920;2023-02-02T09:12:34;21.20;;;6.60;;
4122;SDS011;2075;51.062;6.920;2023-02-02T09:15:20;22.60;;;6.80;;
4122;SDS011;2075;51.062;6.920;2023-02-02T09:18:06;17.17;;;7.40;;
4122;SDS011;2075;51.062;6.920;2023-02-02T09:20:51;12.23;;;6.67;;
4122;SDS011;2075;51.062;6.920;2023-02-02T09:23:38;22.88;;;8.65;;
4122;SDS011;2075;51.062;6.920;2023-02-02T09:26:25;20.50;;;8.53;;
4122;SDS011;2075;51.062;6.920;2023-02-02T09:29:15;18.27;;;7.50;;
4122;SDS011;2075;51.062;6.920;2023-02-02T09:32:04;19.60;;;8.53;;
4122;SDS011;2075;51.062;6.920;2023-02-02T09:34:49;18.63;;;7.63;;
4122;SDS011;2075;51.062;6.920;2023-02-02T09:37:34;21.50;;;7.30;;
4122;SDS011;2075;51.062;6.920;2023-02-02T09:40:20;29.23;;;10.18;;
4122;SDS011;2075;51.062;6.920;2023-02-02T09:43:07;26.53;;;8.70;;
4122;SDS011;2075;51.062;6.920;2023-02-02T09:46:13;18.10;;;8.37;;
4122;SDS011;2075;51.062;6.920;2023-02-02T09:49:10;22.67;;;7.80;;
4122;SDS011;2075;51.062;6.920;2023-02-02T09:52:00;20.40;;;8.27;;
4122;SDS011;2075;51.062;6.920;2023-02-02T09:54:53;21.63;;;8.30;;
4122;SDS011;2075;51.062;6.920;2023-02-02T09:57:44;20.70;;;7.00;;
4122;SDS011;2075;51.062;6.920;2023-02-02T10:00:33;21.30;;;7.57;;
4122;SDS011;2075;51.062;6.920;2023-02-02T10:03:26;27.07;;;8.90;;
4122;SDS011;2075;51.062;6.920;2023-02-02T10:06:21;33.63;;;8.30;;
4122;SDS011;2075;51.062;6.920;2023-02-02T10:09:16;20.33;;;8.93;;
4122;SDS011;2075;51.062;6.920;2023-02-02T10:12:18;27.07;;;7.47;;
4122;SDS011;2075;51.062;6.920;2023-02-02T10:15:14;16.53;;;7.97;;
4122;SDS011;2075;51.062;6.920;2023-02-02T10:18:09;17.70;;;8.70;;
4122;SDS011;2075;51.062;6.920;2023-02-02T10:21:01;18.97;;;8.03;;
4122;SDS011;2075;51.062;6.920;2023-02-02T10:23:50;17.60;;;8.13;;
4122;SDS011;2075;51.062;6.920;2023-02-02T10:26:38;17.10;;;7.63;;
4122;SDS011;2075;51.062;6.920;2023-02-02T10:29:30;23.75;;;9.55;;
4122;SDS011;2075;51.062;6.920;2023-02-02T10:32:21;18.60;;;8.50;;
4122;SDS011;2075;51.062;6.920;2023-02-02T10:35:15;26.37;;;8.33;;
4122;SDS011;2075;51.062;6.920;2023-02-02T10:38:15;15.60;;;8.60;;
4122;SDS011;2075;51.062;6.920;2023-02-02T10:41:12;22.50;;;8.17;;
4122;SDS011;2075;51.062;6.920;2023-02-02T10:44:05;15.47;;;7.80;;
4122;SDS011;2075;51.062;6.920;2023-02-02T10:47:03;23.50;;;9.27;;
4122;SDS011;2075;51.062;6.920;2023-02-02T10:49:53;21.33;;;7.77;;
4122;SDS011;2075;51.062;6.920;2023-02-02T10:52:46;19.33;;;8.50;;
4122;SDS011;2075;51.062;6.920;2023-02-02T10:55:38;20.80;;;8.00;;
4122;SDS011;2075;51.062;6.920;2023-02-02T10:58:27;23.10;;;7.70;;
4122;SDS011;2075;51.062;6.920;2023-02-02T11:01:15;16.30;;;8.13;;
4122;SDS011;2075;51.062;6.920;2023-02-02T11:04:05;19.33;;;8.27;;
4122;SDS011;2075;51.062;6.920;2023-02-02T11:07:11;22.00;;;7.77;;
4122;SDS011;2075;51.062;6.920;2023-02-02T11:10:03;14.97;;;8.90;;
4122;SDS011;2075;51.062;6.920;2023-02-02T11:12:50;22.30;;;8.77;;
4122;SDS011;2075;51.062;6.920;2023-02-02T11:15:40;17.30;;;8.20;;
4122;SDS011;2075;51.062;6.920;2023-02-02T11:18:27;19.60;;;8.17;;
4122;SDS011;2075;51.062;6.920;2023-02-02T11:21:17;25.20;;;8.60;;
4122;SDS011;2075;51.062;6.920;2023-02-02T11:24:05;18.93;;;7.47;;
4122;SDS011;2075;51.062;6.920;2023-02-02T11:27:11;22.73;;;7.50;;
4122;SDS011;2075;51.062;6.920;2023-02-02T11:30:08;21.40;;;8.43;;
4122;SDS011;2075;51.062;6.920;2023-02-02T11:32:55;14.93;;;7.60;;
4122;SDS011;2075;51.062;6.920;2023-02-02T11:35:43;16.45;;;8.25;;
4122;SDS011;2075;51.062;6.920;2023-02-02T11:38:37;21.90;;;7.00;;
4122;SDS011;2075;51.062;6.920;2023-02-02T11:41:22;22.27;;;6.93;;
4122;SDS011;2075;51.062;6.920;2023-02-02T11:44:11;20.03;;;8.03;;
4122;SDS011;2075;51.062;6.920;2023-02-02T11:47:07;22.80;;;8.90;;
4122;SDS011;2075;51.062;6.920;2023-02-02T11:50:03;20.50;;;7.80;;
4122;SDS011;2075;51.062;6.920;2023-02-02T11:52:48;16.93;;;7.03;;
4122;SDS011;2075;51.062;6.920;2023-02-02T11:55:34;21.13;;;6.90;;
4122;SDS011;2075;51.062;6.920;2023-02-02T11:58:23;14.10;;;6.67;;
4122;SDS011;2075;51.062;6.920;2023-02-02T12:01:20;27.10;;;8.17;;
4122;SDS011;2075;51.062;6.920;2023-02-02T12:04:22;17.20;;;7.07;;
4122;SDS011;2075;51.062;6.920;2023-02-02T12:07:20;22.40;;;8.50;;
4122;SDS011;2075;51.062;6.920;2023-02-02T12:10:13;13.43;;;7.10;;
4122;SDS011;2075;51.062;6.920;2023-02-02T12:13:04;16.27;;;7.33;;
4122;SDS011;2075;51.062;6.920;2023-02-02T12:15:56;18.97;;;8.73;;
4122;SDS011;2075;51.062;6.920;2023-02-02T12:18:54;25.13;;;6.80;;
4122;SDS011;2075;51.062;6.920;2023-02-02T12:21:52;14.30;;;7.43;;
4122;SDS011;2075;51.062;6.920;2023-02-02T12:24:48;13.73;;;6.57;;
4122;SDS011;2075;51.062;6.920;2023-02-02T12:27:40;15.43;;;7.40;;
4122;SDS011;2075;51.062;6.920;2023-02-02T12:30:34;19.10;;;7.93;;
4122;SDS011;2075;51.062;6.920;2023-02-02T12:33:30;20.60;;;7.93;;
4122;SDS011;2075;51.062;6.920;2023-02-02T12:36:25;20.20;;;8.48;;
4122;SDS011;2075;51.062;6.920;2023-02-02T12:39:25;19.67;;;8.10;;
4122;SDS011;2075;51.062;6.920;2023-02-02T12:42:28;23.00;;;7.33;;
4122;SDS011;2075;51.062;6.920;2023-02-02T12:45:27;26.40;;;7.37;;
4122;SDS011;2075;51.062;6.920;2023-02-02T12:48:25;18.93;;;7.03;;
4122;SDS011;2075;51.062;6.920;2023-02-02T12:51:25;13.10;;;7.00;;
4122;SDS011;2075;51.062;6.920;2023-02-02T12:54:34;15.97;;;7.23;;
4122;SDS011;2075;51.062;6.920;2023-02-02T12:57:33;18.60;;;8.17;;
4122;SDS011;2075;51.062;6.920;2023-02-02T13:03:59;20.47;;;7.50;;
4122;SDS011;2075;51.062;6.920;2023-02-02T13:07:06;24.67;;;8.10;;
4122;SDS011;2075;51.062;6.920;2023-02-02T13:10:11;16.13;;;7.17;;
4122;SDS011;2075;51.062;6.920;2023-02-02T13:13:02;18.63;;;6.90;;
4122;SDS011;2075;51.062;6.920;2023-02-02T13:15:52;13.53;;;6.73;;
4122;SDS011;2075;51.062;6.920;2023-02-02T13:18:44;17.07;;;6.63;;
4122;SDS011;2075;51.062;6.920;2023-02-02T13:21:37;20.97;;;6.53;;
4122;SDS011;2075;51.062;6.920;2023-02-02T13:24:26;16.83;;;7.40;;
4122;SDS011;2075;51.062;6.920;2023-02-02T13:27:17;15.95;;;7.07;;
4122;SDS011;2075;51.062;6.920;2023-02-02T13:30:04;13.97;;;5.40;;
4122;SDS011;2075;51.062;6.920;2023-02-02T13:32:57;20.70;;;6.50;;
4122;SDS011;2075;51.062;6.920;2023-02-02T13:35:46;16.60;;;6.20;;
4122;SDS011;2075;51.062;6.920;2023-02-02T13:38:35;16.70;;;7.17;;
4122;SDS011;2075;51.062;6.920;2023-02-02T13:41:25;14.03;;;7.00;;
4122;SDS011;2075;51.062;6.920;2023-02-02T13:44:14;18.77;;;7.87;;
4122;SDS011;2075;51.062;6.920;2023-02-02T13:47:04;20.20;;;8.97;;
4122;SDS011;2075;51.062;6.920;2023-02-02T13:49:55;34.10;;;7.47;;
4122;SDS011;2075;51.062;6.920;2023-02-02T13:56:04;14.50;;;6.00;;
4122;SDS011;2075;51.062;6.920;2023-02-02T13:59:04;16.13;;;6.77;;
4122;SDS011;2075;51.062;6.920;2023-02-02T14:01:58;8.77;;;5.20;;
4122;SDS011;2075;51.062;6.920;2023-02-02T14:04:50;15.60;;;6.27;;
4122;SDS011;2075;51.062;6.920;2023-02-02T14:07:39;13.67;;;6.33;;
4122;SDS011;2075;51.062;6.920;2023-02-02T14:10:28;14.33;;;6.67;;
4122;SDS011;2075;51.062;6.920;2023-02-02T14:13:17;10.30;;;5.53;;
4122;SDS011;2075;51.062;6.920;2023-02-02T14:16:23;14.73;;;6.37;;
4122;SDS011;2075;51.062;6.920;2023-02-02T14:22:40;12.07;;;5.67;;
4122;SDS011;2075;51.062;6.920;2023-02-02T14:25:47;11.63;;;5.30;;
4122;SDS011;2075;51.062;6.920;2023-02-02T14:28:39;10.83;;;4.70;;
4122;SDS011;2075;51.062;6.920;2023-02-02T14:31:50;14.23;;;5.00;;
4122;SDS011;2075;51.062;6.920;2023-02-02T14:34:37;13.00;;;5.37;;
4122;SDS011;2075;51.062;6.920;2023-02-02T14:40:33;9.23;;;4.63;;
4122;SDS011;2075;51.062;6.920;2023-02-02T14:43:29;9.80;;;5.23;;
4122;SDS011;2075;51.062;6.920;2023-02-02T14:46:33;7.57;;;4.60;;
4122;SDS011;2075;51.062;6.920;2023-02-02T14:49:23;9.33;;;4.67;;
4122;SDS011;2075;51.062;6.920;2023-02-02T14:52:15;8.73;;;4.07;;
4122;SDS011;2075;51.062;6.920;2023-02-02T14:55:16;10.90;;;4.93;;
4122;SDS011;2075;51.062;6.920;2023-02-02T14:58:03;10.63;;;5.20;;
4122;SDS011;2075;51.062;6.920;2023-02-02T15:00:54;14.30;;;5.93;;
4122;SDS011;2075;51.062;6.920;2023-02-02T15:03:46;8.80;;;5.00;;
4122;SDS011;2075;51.062;6.920;2023-02-02T15:06:36;12.40;;;5.10;;
4122;SDS011;2075;51.062;6.920;2023-02-02T15:09:36;8.17;;;4.30;;
4122;SDS011;2075;51.062;6.920;2023-02-02T15:12:30;12.20;;;4.90;;
4122;SDS011;2075;51.062;6.920;2023-02-02T15:15:19;11.27;;;4.93;;
4122;SDS011;2075;51.062;6.920;2023-02-02T15:18:10;14.60;;;4.57;;
4122;SDS011;2075;51.062;6.920;2023-02-02T15:21:01;12.37;;;4.93;;
4122;SDS011;2075;51.062;6.920;2023-02-02T15:23:50;8.47;;;3.90;;
4122;SDS011;2075;51.062;6.920;2023-02-02T15:26:36;11.97;;;4.97;;
4122;SDS011;2075;51.062;6.920;2023-02-02T15:29:32;9.00;;;4.20;;
4122;SDS011;2075;51.062;6.920;2023-02-02T15:32:25;9.50;;;4.70;;
4122;SDS011;2075;51.062;6.920;2023-02-02T15:35:13;11.53;;;4.90;;
4122;SDS011;2075;51.062;6.920;2023-02-02T15:38:04;6.27;;;4.60;;
4122;SDS011;2075;51.062;6.920;2023-02-02T15:40:57;6.60;;;3.93;;
4122;SDS011;2075;51.062;6.920;2023-02-02T15:43:43;11.77;;;4.00;;
4122;SDS011;2075;51.062;6.920;2023-02-02T15:46:33;10.33;;;4.33;;
4122;SDS011;2075;51.062;6.920;2023-02-02T15:49:25;6.53;;;4.00;;
4122;SDS011;2075;51.062;6.920;2023-02-02T15:52:13;15.87;;;4.30;;
4122;SDS011;2075;51.062;6.920;2023-02-02T15:55:00;9.70;;;3.93;;
4122;SDS011;2075;51.062;6.920;2023-02-02T15:57:45;9.50;;;4.37;;
4122;SDS011;2075;51.062;6.920;2023-02-02T16:00:32;11.60;;;4.10;;
4122;SDS011;2075;51.062;6.920;2023-02-02T16:03:22;11.07;;;4.30;;
4122;SDS011;2075;51.062;6.920;2023-02-02T16:06:14;12.33;;;4.53;;
4122;SDS011;2075;51.062;6.920;2023-02-02T16:09:01;14.50;;;4.53;;
4122;SDS011;2075;51.062;6.920;2023-02-02T16:11:46;11.40;;;4.43;;
4122;SDS011;2075;51.062;6.920;2023-02-02T16:14:36;17.67;;;5.10;;
4122;SDS011;2075;51.062;6.920;2023-02-02T16:17:26;8.80;;;4.13;;
4122;SDS011;2075;51.062;6.920;2023-02-02T16:20:14;6.23;;;5.47;;
4122;SDS011;2075;51.062;6.920;2023-02-02T16:23:02;12.20;;;4.13;;
4122;SDS011;2075;51.062;6.920;2023-02-02T16:25:53;5.70;;;4.50;;
4122;SDS011;2075;51.062;6.920;2023-02-02T16:28:41;9.80;;;4.83;;
4122;SDS011;2075;51.062;6.920;2023-02-02T16:31:27;4.73;;;4.20;;
4122;SDS011;2075;51.062;6.920;2023-02-02T16:34:14;10.00;;;4.67;;
4122;SDS011;2075;51.062;6.920;2023-02-02T16:37:06;8.97;;;4.30;;
4122;SDS011;2075;51.062;6.920;2023-02-02T16:39:56;6.50;;;4.40;;
4122;SDS011;2075;51.062;6.920;2023-02-02T16:43:03;11.80;;;5.07;;
4122;SDS011;2075;51.062;6.920;2023-02-02T16:45:50;8.53;;;5.33;;
4122;SDS011;2075;51.062;6.920;2023-02-02T16:48:37;8.93;;;5.03;;
4122;SDS011;2075;51.062;6.920;2023-02-02T16:51:26;8.53;;;5.40;;
4122;SDS011;2075;51.062;6.920;2023-02-02T16:54:18;12.80;;;6.50;;
4122;SDS011;2075;51.062;6.920;2023-02-02T16:57:04;12.27;;;6.40;;
4122;SDS011;2075;51.062;6.920;2023-02-02T16:59:51;14.37;;;7.33;;
4122;SDS011;2075;51.062;6.920;2023-02-02T17:02:39;15.63;;;7.57;;
4122;SDS011;2075;51.062;6.920;2023-02-02T17:05:31;13.17;;;7.70;;
4122;SDS011;2075;51.062;6.920;2023-02-02T17:08:25;19.07;;;7.27;;
4122;SDS011;2075;51.062;6.920;2023-02-02T17:11:21;13.57;;;8.00;;
4122;SDS011;2075;51.062;6.920;2023-02-02T17:14:17;16.60;;;7.30;;
4122;SDS011;2075;51.062;6.920;2023-02-02T17:17:10;15.47;;;7.77;;
4122;SDS011;2075;51.062;6.920;2023-02-02T17:19:56;20.80;;;9.47;;
4122;SDS011;2075;51.062;6.920;2023-02-02T17:22:42;14.77;;;9.60;;
4122;SDS011;2075;51.062;6.920;2023-02-02T17:25:30;18.60;;;9.50;;
4122;SDS011;2075;51.062;6.920;2023-02-02T17:28:22;12.77;;;8.37;;
4122;SDS011;2075;51.062;6.920;2023-02-02T17:31:10;17.97;;;7.73;;
4122;SDS011;2075;51.062;6.920;2023-02-02T17:33:58;15.43;;;7.60;;
4122;SDS011;2075;51.062;6.920;2023-02-02T17:36:43;15.67;;;7.67;;
4122;SDS011;2075;51.062;6.920;2023-02-02T17:39:28;11.20;;;6.80;;
4122;SDS011;2075;51.062;6.920;2023-02-02T17:42:16;17.20;;;6.83;;
4122;SDS011;2075;51.062;6.920;2023-02-02T17:45:10;20.70;;;8.70;;
4122;SDS011;2075;51.062;6.920;2023-02-02T17:48:03;12.70;;;6.27;;
4122;SDS011;2075;51.062;6.920;2023-02-02T17:50:49;16.03;;;7.10;;